createdAt,value
2019-04-14T00:00:49.495Z,993.18
2019-04-14T00:01:48.209Z,993.18
2019-04-14T00:02:49.166Z,993.20
2019-04-14T00:03:48.275Z,993.20
2019-04-14T00:04:48.707Z,993.19
2019-04-14T00:05:48.156Z,993.13
2019-04-14T00:06:48.394Z,993.19
2019-04-14T00:07:48.137Z,993.14
2019-04-14T00:08:48.144Z,993.17
2019-04-14T00:09:48.226Z,993.21
2019-04-14T00:10:48.658Z,993.21
2019-04-14T00:11:48.234Z,993.11
2019-04-14T00:12:49.210Z,993.16
2019-04-14T00:13:48.126Z,993.10
2019-04-14T00:14:49.110Z,993.10
2019-04-14T00:15:50.467Z,993.16
2019-04-14T00:16:49.013Z,993.15
2019-04-14T00:17:48.028Z,993.12
2019-04-14T00:18:49.082Z,993.12
2019-04-14T00:19:48.007Z,993.08
2019-04-14T00:20:49.121Z,993.02
2019-04-14T00:21:48.023Z,993.11
2019-04-14T00:22:49.016Z,993.08
2019-04-14T00:23:47.965Z,993.05
2019-04-14T00:24:48.935Z,992.97
2019-04-14T00:25:47.948Z,993.02
2019-04-14T00:26:48.799Z,993.01
2019-04-14T00:27:47.964Z,993.06
2019-04-14T00:28:49.034Z,992.95
2019-04-14T00:29:48.008Z,992.94
2019-04-14T00:30:49.039Z,992.90
2019-04-14T00:31:50.655Z,992.90
2019-04-14T00:32:48.804Z,992.92
2019-04-14T00:33:47.894Z,992.94
2019-04-14T00:34:48.534Z,992.88
2019-04-14T00:35:47.836Z,992.90
2019-04-14T00:36:48.117Z,992.83
2019-04-14T00:37:48.998Z,992.86
2019-04-14T00:38:47.900Z,992.81
2019-04-14T00:39:48.916Z,992.75
2019-04-14T00:40:47.783Z,992.81
2019-04-14T00:41:53.464Z,992.80
2019-04-14T00:42:49.500Z,992.78
2019-04-14T00:43:48.486Z,992.75
2019-04-14T00:44:47.748Z,992.78
2019-04-14T00:45:52.812Z,992.75
2019-04-14T00:46:49.602Z,992.83
2019-04-14T00:47:55.642Z,992.78
2019-04-14T00:48:49.679Z,992.78
2019-04-14T00:49:48.738Z,992.81
2019-04-14T00:50:47.696Z,992.78
2019-04-14T00:51:48.517Z,992.74
2019-04-14T00:52:48.033Z,992.77
2019-04-14T00:53:47.649Z,992.79
2019-04-14T00:54:47.792Z,992.81
2019-04-14T00:55:48.737Z,992.80
2019-04-14T00:56:47.708Z,992.77
2019-04-14T00:57:48.668Z,992.78
2019-04-14T00:58:47.640Z,992.82
2019-04-14T00:59:48.678Z,992.75
2019-04-14T01:00:47.586Z,992.79
2019-04-14T01:01:48.407Z,992.77
2019-04-14T01:02:47.572Z,992.77
2019-04-14T01:03:48.277Z,992.82
2019-04-14T01:04:47.565Z,992.80
2019-04-14T01:05:48.192Z,992.76
2019-04-14T01:06:47.506Z,992.74
2019-04-14T01:07:48.013Z,992.76
2019-04-14T01:08:47.484Z,992.74
2019-04-14T01:09:48.767Z,992.76
2019-04-14T01:10:47.708Z,992.73
2019-04-14T01:11:48.750Z,992.79
2019-04-14T01:12:47.500Z,992.74
2019-04-14T01:13:48.548Z,992.75
2019-04-14T01:14:47.510Z,992.79
2019-04-14T01:15:57.251Z,992.77
2019-04-14T01:16:49.410Z,992.81
2019-04-14T01:17:48.472Z,992.79
2019-04-14T01:18:47.390Z,992.77
2019-04-14T01:19:48.429Z,992.81
2019-04-14T01:20:47.357Z,992.75
2019-04-14T01:21:48.123Z,992.82
2019-04-14T01:22:47.432Z,992.82
2019-04-14T01:23:48.013Z,992.73
2019-04-14T01:24:47.332Z,992.77
2019-04-14T01:25:47.737Z,992.76
2019-04-14T01:26:48.427Z,992.75
2019-04-14T01:27:47.440Z,992.80
2019-04-14T01:28:48.293Z,992.78
2019-04-14T01:29:47.378Z,992.77
2019-04-14T01:30:48.042Z,992.74
2019-04-14T01:31:47.327Z,992.77
2019-04-14T01:32:47.936Z,992.81
2019-04-14T01:33:47.217Z,992.79
2019-04-14T01:34:47.651Z,992.80
2019-04-14T01:35:47.251Z,992.80
2019-04-14T01:36:47.519Z,992.75
2019-04-14T01:37:47.206Z,992.80
2019-04-14T01:38:47.175Z,992.80
2019-04-14T01:39:48.173Z,992.80
2019-04-14T01:40:47.179Z,992.73
2019-04-14T01:41:47.824Z,992.82
2019-04-14T01:42:48.402Z,992.78
2019-04-14T01:43:47.463Z,992.77
2019-04-14T01:44:48.076Z,992.79
2019-04-14T01:45:59.774Z,992.83
2019-04-14T01:46:48.112Z,992.76
2019-04-14T01:47:47.097Z,992.73
2019-04-14T01:48:47.519Z,992.77
2019-04-14T01:49:47.059Z,992.75
2019-04-14T01:50:47.391Z,992.72
2019-04-14T01:51:47.031Z,992.73
2019-04-14T01:52:47.949Z,992.73
2019-04-14T01:53:47.008Z,992.79
2019-04-14T01:54:47.328Z,992.79
2019-04-14T01:55:46.984Z,992.83
2019-04-14T01:56:47.202Z,992.83
2019-04-14T01:57:48.142Z,992.83
2019-04-14T01:58:46.994Z,992.81
2019-04-14T01:59:48.171Z,992.83
2019-04-14T02:00:46.932Z,992.81
2019-04-14T02:01:47.819Z,992.82
2019-04-14T02:02:46.928Z,992.84
2019-04-14T02:03:47.790Z,992.85
2019-04-14T02:04:46.967Z,992.86
2019-04-14T02:05:47.491Z,992.88
2019-04-14T02:06:46.872Z,992.87
2019-04-14T02:07:47.261Z,992.93
2019-04-14T02:08:47.956Z,992.94
2019-04-14T02:09:46.983Z,992.96
2019-04-14T02:10:47.870Z,992.98
2019-04-14T02:11:46.825Z,992.92
2019-04-14T02:12:47.366Z,992.97
2019-04-14T02:13:46.811Z,992.93
2019-04-14T02:14:47.425Z,992.98
2019-04-14T02:15:46.775Z,992.93
2019-04-14T02:16:52.242Z,992.90
2019-04-14T02:17:48.171Z,992.90
2019-04-14T02:18:47.115Z,992.92
2019-04-14T02:19:48.006Z,992.89
2019-04-14T02:20:46.879Z,992.89
2019-04-14T02:21:47.811Z,992.96
2019-04-14T02:22:46.747Z,992.95
2019-04-14T02:23:47.537Z,992.93
2019-04-14T02:24:46.681Z,992.92
2019-04-14T02:25:47.165Z,992.93
2019-04-14T02:26:47.931Z,992.95
2019-04-14T02:27:47.221Z,992.88
2019-04-14T02:28:46.679Z,992.90
2019-04-14T02:29:47.383Z,992.86
2019-04-14T02:30:57.230Z,992.82
2019-04-14T02:32:17.571Z,992.80
2019-04-14T02:33:18.141Z,992.87
2019-04-14T02:34:17.062Z,992.82
2019-04-14T02:35:26.022Z,992.88
2019-04-14T02:37:26.307Z,992.83
2019-04-14T02:38:24.816Z,992.79
2019-04-14T02:39:24.164Z,992.82
2019-04-14T02:40:21.680Z,992.89
2019-04-14T02:41:18.877Z,992.81
2019-04-14T02:43:27.590Z,992.83
2019-04-14T02:44:23.007Z,992.79
2019-04-14T02:45:19.434Z,992.86
2019-04-14T02:46:11.757Z,992.78
2019-04-14T02:47:47.243Z,992.84
2019-04-14T02:48:33.428Z,992.83
2019-04-14T02:49:16.918Z,992.86
2019-04-14T02:50:12.159Z,992.83
2019-04-14T02:51:29.304Z,992.83
2019-04-14T02:52:11.609Z,992.87
2019-04-14T02:53:18.455Z,992.87
2019-04-14T02:54:20.064Z,992.88
2019-04-14T02:55:08.583Z,992.87
2019-04-14T02:56:15.995Z,992.95
2019-04-14T02:57:16.763Z,992.88
2019-04-14T02:58:20.499Z,992.91
2019-04-14T02:59:14.049Z,992.87
2019-04-14T03:00:19.484Z,992.84
2019-04-14T03:01:27.617Z,992.86
2019-04-14T03:02:30.352Z,992.83
2019-04-14T03:03:16.899Z,992.83
2019-04-14T03:04:16.903Z,992.88
2019-04-14T03:05:13.223Z,992.85
2019-04-14T03:06:12.194Z,992.90
2019-04-14T03:07:16.563Z,992.93
2019-04-14T03:08:16.984Z,992.84
2019-04-14T03:09:19.053Z,992.90
2019-04-14T03:10:17.913Z,992.89
2019-04-14T03:11:13.631Z,992.90
2019-04-14T03:12:14.569Z,992.89
2019-04-14T03:13:15.069Z,992.92
2019-04-14T03:14:15.688Z,992.89
2019-04-14T03:15:13.010Z,992.92
2019-04-14T03:16:13.806Z,992.92
2019-04-14T03:17:21.380Z,992.87
2019-04-14T03:19:18.309Z,992.79
2019-04-14T03:21:15.863Z,992.81
2019-04-14T03:22:23.645Z,992.79
2019-04-14T03:23:19.174Z,992.87
2019-04-14T03:24:09.390Z,992.78
2019-04-14T03:25:03.099Z,992.81
2019-04-14T03:26:15.367Z,992.77
2019-04-14T03:27:13.521Z,992.80
2019-04-14T03:28:12.675Z,992.82
2019-04-14T03:29:19.204Z,992.82
2019-04-14T03:30:34.003Z,992.81
2019-04-14T03:32:32.600Z,992.83
2019-04-14T03:33:32.300Z,992.76
2019-04-14T03:35:35.148Z,992.79
2019-04-14T03:36:44.227Z,992.80
2019-04-14T03:37:43.396Z,992.89
2019-04-14T03:38:18.600Z,992.85
2019-04-14T03:39:31.943Z,992.81
2019-04-14T03:40:12.313Z,992.82
2019-04-14T03:41:17.283Z,992.84
2019-04-14T03:43:22.578Z,992.82
2019-04-14T03:44:28.657Z,992.85
2019-04-14T03:45:17.043Z,992.84
2019-04-14T03:46:19.655Z,992.87
2019-04-14T03:47:17.510Z,992.87
2019-04-14T03:48:42.482Z,992.88
2019-04-14T03:50:17.508Z,992.86
2019-04-14T03:52:19.515Z,992.90
2019-04-14T03:53:15.829Z,992.89
2019-04-14T03:54:20.210Z,992.84
2019-04-14T03:55:04.112Z,992.87
2019-04-14T03:55:54.548Z,992.89
2019-04-14T03:56:46.860Z,992.89
2019-04-14T03:57:45.748Z,992.87
2019-04-14T03:58:46.505Z,992.88
2019-04-14T03:59:45.716Z,992.89
2019-04-14T04:00:46.539Z,992.90
2019-04-14T04:01:45.784Z,992.92
2019-04-14T04:02:46.605Z,992.93
2019-04-14T04:03:45.787Z,992.98
2019-04-14T04:04:46.704Z,992.89
2019-04-14T04:05:45.683Z,992.91
2019-04-14T04:06:46.406Z,992.91
2019-04-14T04:07:45.588Z,992.92
2019-04-14T04:08:46.458Z,992.92
2019-04-14T04:09:45.625Z,992.86
2019-04-14T04:10:46.471Z,992.92
2019-04-14T04:11:45.581Z,992.91
2019-04-14T04:12:46.541Z,992.95
2019-04-14T04:13:45.596Z,992.96
2019-04-14T04:14:46.407Z,992.94
2019-04-14T04:15:45.540Z,992.94
2019-04-14T04:16:46.186Z,992.97
2019-04-14T04:17:45.479Z,992.96
2019-04-14T04:18:56.158Z,992.99
2019-04-14T04:19:47.003Z,993.02
2019-04-14T04:20:45.608Z,992.96
2019-04-14T04:21:46.560Z,993.01
2019-04-14T04:22:45.638Z,993.01
2019-04-14T04:23:45.419Z,993.01
2019-04-14T04:24:45.529Z,993.01
2019-04-14T04:25:46.568Z,993.01
2019-04-14T04:26:45.391Z,993.06
2019-04-14T04:27:46.161Z,993.03
2019-04-14T04:28:45.365Z,993.10
2019-04-14T04:29:46.266Z,993.09
2019-04-14T04:30:45.361Z,993.17
2019-04-14T04:31:46.092Z,993.15
2019-04-14T04:32:45.321Z,993.10
2019-04-14T04:33:45.799Z,993.13
2019-04-14T04:34:45.308Z,993.06
2019-04-14T04:35:45.745Z,993.09
2019-04-14T04:36:46.354Z,993.09
2019-04-14T04:37:45.471Z,993.09
2019-04-14T04:38:46.330Z,993.14
2019-04-14T04:39:45.430Z,993.08
2019-04-14T04:40:46.148Z,993.08
2019-04-14T04:41:45.259Z,993.09
2019-04-14T04:42:45.814Z,993.06
2019-04-14T04:43:45.255Z,993.12
2019-04-14T04:44:46.140Z,993.08
2019-04-14T04:45:45.285Z,993.15
2019-04-14T04:46:45.942Z,993.15
2019-04-14T04:47:45.174Z,993.21
2019-04-14T04:48:58.313Z,993.18
2019-04-14T04:49:46.869Z,993.22
2019-04-14T04:50:45.390Z,993.17
2019-04-14T04:51:46.432Z,993.12
2019-04-14T04:52:45.217Z,993.16
2019-04-14T04:53:46.166Z,993.16
2019-04-14T04:54:45.188Z,993.14
2019-04-14T04:55:46.093Z,993.14
2019-04-14T04:56:45.086Z,993.13
2019-04-14T04:57:46.001Z,993.15
2019-04-14T04:58:45.638Z,993.18
2019-04-14T04:59:45.275Z,993.13
2019-04-14T05:00:48.486Z,993.14
2019-04-14T05:01:47.274Z,993.11
2019-04-14T05:02:46.060Z,993.08
2019-04-14T05:03:45.026Z,993.11
2019-04-14T05:04:45.978Z,993.14
2019-04-14T05:05:45.098Z,993.14
2019-04-14T05:06:45.932Z,993.16
2019-04-14T05:07:44.993Z,993.11
2019-04-14T05:08:45.554Z,993.14
2019-04-14T05:09:45.035Z,993.18
2019-04-14T05:10:45.689Z,993.11
2019-04-14T05:11:44.906Z,993.14
2019-04-14T05:12:45.667Z,993.18
2019-04-14T05:13:44.886Z,993.19
2019-04-14T05:14:45.577Z,993.22
2019-04-14T05:15:44.880Z,993.24
2019-04-14T05:16:46.053Z,993.17
2019-04-14T05:17:45.288Z,993.25
2019-04-14T05:18:46.239Z,993.25
2019-04-14T05:19:45.509Z,993.32
2019-04-14T05:20:44.888Z,993.26
2019-04-14T05:21:45.252Z,993.32
2019-04-14T05:22:44.794Z,993.32
2019-04-14T05:23:45.356Z,993.32
2019-04-14T05:24:44.772Z,993.25
2019-04-14T05:25:45.200Z,993.32
2019-04-14T05:26:45.933Z,993.34
2019-04-14T05:27:45.208Z,993.30
2019-04-14T05:28:45.949Z,993.36
2019-04-14T05:29:45.102Z,993.31
2019-04-14T05:30:45.734Z,993.42
2019-04-14T05:31:44.773Z,993.44
2019-04-14T05:32:45.517Z,993.38
2019-04-14T05:33:44.832Z,993.44
2019-04-14T05:34:45.445Z,993.38
2019-04-14T05:35:44.666Z,993.37
2019-04-14T05:36:45.348Z,993.42
2019-04-14T05:37:44.637Z,993.41
2019-04-14T05:38:45.009Z,993.42
2019-04-14T05:39:44.660Z,993.40
2019-04-14T05:40:45.074Z,993.44
2019-04-14T05:41:57.075Z,993.45
2019-04-14T05:42:45.633Z,993.43
2019-04-14T05:43:50.198Z,993.40
2019-04-14T05:44:45.628Z,993.42
2019-04-14T05:45:45.750Z,993.48
2019-04-14T05:46:44.703Z,993.40
2019-04-14T05:47:45.694Z,993.41
2019-04-14T05:48:44.720Z,993.44
2019-04-14T05:49:48.236Z,993.40
2019-04-14T05:50:45.494Z,993.42
2019-04-14T05:51:45.845Z,993.44
2019-04-14T05:52:44.756Z,993.44
2019-04-14T05:53:45.757Z,993.49
2019-04-14T05:54:44.768Z,993.45
2019-04-14T05:55:44.462Z,993.38
2019-04-14T05:56:44.725Z,993.44
2019-04-14T05:57:44.496Z,993.44
2019-04-14T05:58:44.750Z,993.42
2019-04-14T05:59:44.441Z,993.40
2019-04-14T06:00:44.402Z,993.46
2019-04-14T06:01:44.395Z,993.44
2019-04-14T06:02:44.479Z,993.41
2019-04-14T06:03:45.389Z,993.43
2019-04-14T06:04:44.385Z,993.48
2019-04-14T06:05:45.014Z,993.41
2019-04-14T06:06:44.380Z,993.37
2019-04-14T06:07:44.313Z,993.41
2019-04-14T06:08:44.350Z,993.33
2019-04-14T06:09:44.292Z,993.32
2019-04-14T06:10:44.338Z,993.31
2019-04-14T06:11:44.340Z,993.30
2019-04-14T06:12:44.269Z,993.34
2019-04-14T06:13:44.250Z,993.35
2019-04-14T06:14:44.241Z,993.28
2019-04-14T06:15:44.276Z,993.29
2019-04-14T06:16:44.231Z,993.32
2019-04-14T06:17:44.207Z,993.30
2019-04-14T06:18:44.268Z,993.30
2019-04-14T06:19:44.201Z,993.31
2019-04-14T06:20:44.178Z,993.36
2019-04-14T06:21:44.177Z,993.31
2019-04-14T06:22:44.155Z,993.34
2019-04-14T06:23:44.247Z,993.34
2019-04-14T06:24:44.153Z,993.30
2019-04-14T06:25:44.185Z,993.33
2019-04-14T06:26:44.127Z,993.36
2019-04-14T06:27:44.154Z,993.36
2019-04-14T06:28:44.113Z,993.35
2019-04-14T06:29:44.083Z,993.36
2019-04-14T06:30:44.075Z,993.39
2019-04-14T06:31:44.074Z,993.27
2019-04-14T06:32:44.071Z,993.29
2019-04-14T06:33:44.040Z,993.36
2019-04-14T06:34:44.030Z,993.33
2019-04-14T06:35:44.019Z,993.32
2019-04-14T06:36:44.032Z,993.31
2019-04-14T06:37:43.997Z,993.33
2019-04-14T06:38:44.192Z,993.33
2019-04-14T06:39:43.999Z,993.30
2019-04-14T06:40:43.967Z,993.36
2019-04-14T06:41:43.970Z,993.30
2019-04-14T06:42:43.953Z,993.29
2019-04-14T06:43:49.194Z,993.33
2019-04-14T06:44:45.158Z,993.27
2019-04-14T06:45:43.913Z,993.26
2019-04-14T06:46:43.965Z,993.30
2019-04-14T06:47:43.894Z,993.26
2019-04-14T06:48:43.926Z,993.25
2019-04-14T06:49:49.264Z,993.25
2019-04-14T06:50:46.411Z,993.27
2019-04-14T06:51:43.867Z,993.29
2019-04-14T06:52:43.960Z,993.31
2019-04-14T06:53:43.826Z,993.26
2019-04-14T06:54:43.831Z,993.30
2019-04-14T06:55:43.807Z,993.28
2019-04-14T06:56:43.874Z,993.25
2019-04-14T06:57:43.853Z,993.29
2019-04-14T06:58:43.775Z,993.31
2019-04-14T06:59:43.765Z,993.26
2019-04-14T07:00:43.826Z,993.28
2019-04-14T07:01:43.963Z,993.30
2019-04-14T07:02:45.479Z,993.29
2019-04-14T07:03:43.721Z,993.32
2019-04-14T07:04:43.765Z,993.32
2019-04-14T07:05:43.749Z,993.29
2019-04-14T07:06:43.711Z,993.30
2019-04-14T07:07:43.719Z,993.38
2019-04-14T07:08:43.754Z,993.35
2019-04-14T07:09:43.687Z,993.35
2019-04-14T07:10:43.696Z,993.33
2019-04-14T07:11:43.644Z,993.35
2019-04-14T07:12:43.702Z,993.33
2019-04-14T07:13:47.964Z,993.38
2019-04-14T07:14:43.670Z,993.43
2019-04-14T07:15:43.610Z,993.41
2019-04-14T07:16:43.597Z,993.37
2019-04-14T07:17:43.643Z,993.42
2019-04-14T07:18:43.567Z,993.41
2019-04-14T07:19:43.564Z,993.43
2019-04-14T07:20:43.591Z,993.48
2019-04-14T07:21:43.595Z,993.44
2019-04-14T07:22:43.586Z,993.38
2019-04-14T07:23:43.587Z,993.40
2019-04-14T07:24:43.539Z,993.42
2019-04-14T07:25:43.600Z,993.39
2019-04-14T07:26:43.674Z,993.45
2019-04-14T07:27:43.652Z,993.46
2019-04-14T07:28:55.962Z,993.47
2019-04-14T07:29:44.461Z,993.50
2019-04-14T07:30:43.464Z,993.51
2019-04-14T07:31:43.436Z,993.48
2019-04-14T07:32:43.454Z,993.47
2019-04-14T07:33:43.472Z,993.49
2019-04-14T07:34:43.399Z,993.48
2019-04-14T07:35:43.395Z,993.49
2019-04-14T07:36:43.374Z,993.55
2019-04-14T07:37:43.389Z,993.50
2019-04-14T07:38:43.461Z,993.52
2019-04-14T07:39:43.351Z,993.52
2019-04-14T07:40:43.384Z,993.54
2019-04-14T07:41:43.350Z,993.58
2019-04-14T07:42:43.347Z,993.51
2019-04-14T07:43:43.325Z,993.50
2019-04-14T07:44:43.322Z,993.52
2019-04-14T07:45:43.280Z,993.53
2019-04-14T07:46:43.270Z,993.51
2019-04-14T07:47:43.367Z,993.51
2019-04-14T07:48:43.248Z,993.56
2019-04-14T07:49:43.237Z,993.53
2019-04-14T07:50:43.308Z,993.50
2019-04-14T07:51:43.231Z,993.51
2019-04-14T07:52:43.218Z,993.60
2019-04-14T07:53:43.213Z,993.56
2019-04-14T07:54:43.185Z,993.58
2019-04-14T07:55:43.246Z,993.60
2019-04-14T07:56:43.248Z,993.55
2019-04-14T07:57:43.186Z,993.54
2019-04-14T07:58:43.149Z,993.53
2019-04-14T07:59:43.141Z,993.57
2019-04-14T08:00:43.312Z,993.55
2019-04-14T08:01:43.148Z,993.51
2019-04-14T08:02:43.116Z,993.47
2019-04-14T08:03:43.212Z,993.48
2019-04-14T08:04:43.078Z,993.49
2019-04-14T08:05:43.069Z,993.47
2019-04-14T08:06:43.070Z,993.55
2019-04-14T08:07:43.072Z,993.55
2019-04-14T08:08:43.036Z,993.58
2019-04-14T08:09:43.029Z,993.55
2019-04-14T08:10:43.116Z,993.57
2019-04-14T08:11:43.018Z,993.57
2019-04-14T08:12:42.994Z,993.58
2019-04-14T08:13:43.014Z,993.56
2019-04-14T08:14:42.983Z,993.61
2019-04-14T08:15:42.960Z,993.53
2019-04-14T08:16:43.019Z,993.54
2019-04-14T08:17:43.744Z,993.54
2019-04-14T08:18:42.965Z,993.47
2019-04-14T08:19:42.929Z,993.48
2019-04-14T08:20:42.921Z,993.49
2019-04-14T08:21:42.923Z,993.52
2019-04-14T08:22:42.907Z,993.46
2019-04-14T08:23:42.924Z,993.48
2019-04-14T08:24:42.930Z,993.50
2019-04-14T08:25:42.909Z,993.47
2019-04-14T08:26:42.849Z,993.51
2019-04-14T08:27:42.866Z,993.47
2019-04-14T08:28:42.829Z,993.46
2019-04-14T08:29:42.828Z,993.51
2019-04-14T08:30:42.799Z,993.49
2019-04-14T08:31:42.787Z,993.43
2019-04-14T08:32:42.779Z,993.46
2019-04-14T08:33:42.785Z,993.52
2019-04-14T08:34:42.760Z,993.51
2019-04-14T08:35:42.808Z,993.57
2019-04-14T08:36:42.752Z,993.55
2019-04-14T08:37:42.724Z,993.51
2019-04-14T08:38:42.740Z,993.54
2019-04-14T08:39:42.700Z,993.52
2019-04-14T08:40:42.695Z,993.55
2019-04-14T08:41:42.722Z,993.57
2019-04-14T08:42:42.695Z,993.53
2019-04-14T08:43:42.687Z,993.49
2019-04-14T08:44:42.658Z,993.56
2019-04-14T08:45:42.658Z,993.58
2019-04-14T08:46:42.630Z,993.55
2019-04-14T08:47:42.682Z,993.54
2019-04-14T08:48:42.625Z,993.54
2019-04-14T08:49:42.602Z,993.58
2019-04-14T08:50:42.605Z,993.53
2019-04-14T08:51:42.575Z,993.62
2019-04-14T08:52:42.564Z,993.49
2019-04-14T08:53:42.651Z,993.53
2019-04-14T08:54:42.555Z,993.59
2019-04-14T08:55:42.546Z,993.55
2019-04-14T08:56:42.535Z,993.50
2019-04-14T08:57:42.513Z,993.52
2019-04-14T08:58:42.509Z,993.49
2019-04-14T08:59:42.521Z,993.58
2019-04-14T09:00:42.488Z,993.58
2019-04-14T09:01:42.466Z,993.60
2019-04-14T09:02:42.461Z,993.56
2019-04-14T09:03:42.466Z,993.60
2019-04-14T09:04:42.435Z,993.59
2019-04-14T09:05:42.449Z,993.59
2019-04-14T09:06:42.432Z,993.52
2019-04-14T09:07:42.423Z,993.58
2019-04-14T09:08:42.520Z,993.61
2019-04-14T09:09:42.384Z,993.58
2019-04-14T09:10:42.377Z,993.60
2019-04-14T09:11:42.366Z,993.59
2019-04-14T09:12:42.375Z,993.61
2019-04-14T09:13:42.393Z,993.55
2019-04-14T09:14:42.325Z,993.57
2019-04-14T09:15:42.340Z,993.63
2019-04-14T09:16:42.364Z,993.62
2019-04-14T09:17:42.296Z,993.57
2019-04-14T09:18:42.675Z,993.61
2019-04-14T09:19:42.276Z,993.62
2019-04-14T09:20:51.650Z,993.58
2019-04-14T09:21:43.375Z,993.64
2019-04-14T09:22:42.283Z,993.68
2019-04-14T09:23:42.250Z,993.67
2019-04-14T09:24:42.251Z,993.72
2019-04-14T09:25:42.211Z,993.67
2019-04-14T09:26:42.198Z,993.64
2019-04-14T09:27:42.245Z,993.65
2019-04-14T09:28:42.205Z,993.67
2019-04-14T09:29:42.183Z,993.71
2019-04-14T09:30:42.178Z,993.63
2019-04-14T09:31:42.148Z,993.60
2019-04-14T09:32:42.155Z,993.60
2019-04-14T09:33:42.151Z,993.67
2019-04-14T09:34:42.198Z,993.62
2019-04-14T09:35:42.110Z,993.67
2019-04-14T09:36:42.117Z,993.63
2019-04-14T09:37:42.084Z,993.66
2019-04-14T09:38:42.097Z,993.65
2019-04-14T09:39:42.071Z,993.71
2019-04-14T09:40:42.059Z,993.64
2019-04-14T09:41:42.099Z,993.70
2019-04-14T09:42:42.031Z,993.74
2019-04-14T09:43:42.042Z,993.70
2019-04-14T09:44:42.022Z,993.73
2019-04-14T09:45:42.028Z,993.81
2019-04-14T09:46:42.024Z,993.72
2019-04-14T09:47:42.007Z,993.79
2019-04-14T09:48:43.056Z,993.76
2019-04-14T09:49:41.969Z,993.74
2019-04-14T09:50:41.945Z,993.75
2019-04-14T09:51:41.932Z,993.79
2019-04-14T09:52:41.940Z,993.81
2019-04-14T09:53:41.944Z,993.79
2019-04-14T09:54:41.926Z,993.85
2019-04-14T09:55:41.902Z,993.84
2019-04-14T09:56:41.879Z,993.82
2019-04-14T09:57:41.872Z,993.84
2019-04-14T09:58:41.864Z,993.85
2019-04-14T09:59:41.916Z,993.81
2019-04-14T10:00:41.930Z,993.90
2019-04-14T10:01:41.843Z,993.86
2019-04-14T10:02:41.818Z,993.83
2019-04-14T10:03:41.840Z,993.84
2019-04-14T10:04:41.814Z,993.91
2019-04-14T10:05:41.791Z,993.89
2019-04-14T10:06:41.819Z,993.87
2019-04-14T10:07:41.775Z,993.91
2019-04-14T10:08:41.755Z,993.91
2019-04-14T10:09:41.797Z,993.86
2019-04-14T10:10:41.809Z,993.91
2019-04-14T10:11:48.639Z,993.93
2019-04-14T10:12:42.752Z,993.97
2019-04-14T10:13:41.720Z,993.94
2019-04-14T10:14:41.733Z,993.98
2019-04-14T10:15:41.679Z,993.93
2019-04-14T10:16:41.712Z,993.92
2019-04-14T10:17:41.654Z,993.93
2019-04-14T10:18:41.682Z,993.91
2019-04-14T10:19:41.694Z,993.90
2019-04-14T10:20:41.632Z,993.87
2019-04-14T10:21:41.629Z,993.92
2019-04-14T10:22:41.605Z,993.86
2019-04-14T10:23:41.641Z,993.98
2019-04-14T10:24:41.737Z,993.91
2019-04-14T10:25:41.643Z,993.91
2019-04-14T10:26:41.561Z,993.91
2019-04-14T10:27:41.584Z,993.98
2019-04-14T10:28:41.537Z,994.01
2019-04-14T10:29:41.561Z,993.97
2019-04-14T10:30:41.530Z,993.99
2019-04-14T10:31:41.519Z,993.97
2019-04-14T10:32:41.745Z,994.05
2019-04-14T10:33:41.507Z,994.04
2019-04-14T10:34:41.506Z,994.00
2019-04-14T10:35:41.463Z,994.00
2019-04-14T10:36:41.479Z,994.05
2019-04-14T10:37:41.447Z,994.03
2019-04-14T10:38:42.470Z,994.06
2019-04-14T10:39:41.444Z,994.02
2019-04-14T10:40:41.413Z,994.08
2019-04-14T10:41:41.776Z,994.04
2019-04-14T10:42:41.390Z,994.11
2019-04-14T10:43:41.379Z,994.12
2019-04-14T10:44:41.422Z,994.10
2019-04-14T10:45:41.402Z,994.07
2019-04-14T10:46:41.348Z,994.09
2019-04-14T10:47:41.341Z,994.07
2019-04-14T10:48:41.325Z,994.12
2019-04-14T10:49:41.349Z,994.18
2019-04-14T10:50:41.391Z,994.16
2019-04-14T10:51:41.319Z,994.18
2019-04-14T10:52:41.313Z,994.21
2019-04-14T10:53:41.276Z,994.17
2019-04-14T10:54:41.355Z,994.15
2019-04-14T10:55:41.260Z,994.22
2019-04-14T10:56:41.378Z,994.17
2019-04-14T10:57:41.362Z,994.16
2019-04-14T10:58:41.219Z,994.19
2019-04-14T10:59:41.280Z,994.17
2019-04-14T11:00:41.202Z,994.21
2019-04-14T11:01:41.189Z,994.25
2019-04-14T11:02:41.263Z,994.21
2019-04-14T11:03:41.389Z,994.21
2019-04-14T11:04:41.217Z,994.19
2019-04-14T11:05:41.154Z,994.21
2019-04-14T11:06:41.139Z,994.22
2019-04-14T11:07:41.138Z,994.20
2019-04-14T11:08:41.154Z,994.18
2019-04-14T11:09:41.203Z,994.20
2019-04-14T11:10:41.107Z,994.14
2019-04-14T11:11:41.081Z,994.17
2019-04-14T11:12:41.081Z,994.16
2019-04-14T11:13:41.063Z,994.17
2019-04-14T11:14:41.043Z,994.20
2019-04-14T11:15:41.322Z,994.17
2019-04-14T11:16:41.028Z,994.19
2019-04-14T11:17:41.015Z,994.14
2019-04-14T11:18:41.000Z,994.18
2019-04-14T11:19:41.004Z,994.19
2019-04-14T11:20:40.988Z,994.20
2019-04-14T11:21:42.879Z,994.18
2019-04-14T11:22:40.971Z,994.19
2019-04-14T11:23:41.034Z,994.16
2019-04-14T11:24:40.953Z,994.19
2019-04-14T11:25:40.934Z,994.21
2019-04-14T11:26:40.930Z,994.20
2019-04-14T11:27:40.905Z,994.23
2019-04-14T11:28:40.893Z,994.22
2019-04-14T11:29:40.881Z,994.22
2019-04-14T11:30:40.939Z,994.20
2019-04-14T11:31:40.860Z,994.18
2019-04-14T11:32:40.856Z,994.15
2019-04-14T11:33:40.870Z,994.15
2019-04-14T11:34:40.829Z,994.19
2019-04-14T11:35:40.867Z,994.18
2019-04-14T11:36:40.855Z,994.18
2019-04-14T11:37:40.801Z,994.23
2019-04-14T11:38:40.788Z,994.23
2019-04-14T11:39:40.777Z,994.26
2019-04-14T11:40:40.801Z,994.24
2019-04-14T11:41:40.758Z,994.20
2019-04-14T11:42:51.854Z,994.16
2019-04-14T11:43:41.810Z,994.19
2019-04-14T11:44:40.778Z,994.19
2019-04-14T11:45:40.728Z,994.19
2019-04-14T11:46:40.726Z,994.15
2019-04-14T11:47:40.710Z,994.22
2019-04-14T11:48:40.697Z,994.19
2019-04-14T11:49:40.766Z,994.19
2019-04-14T11:50:40.694Z,994.20
2019-04-14T11:51:40.702Z,994.16
2019-04-14T11:52:40.697Z,994.20
2019-04-14T11:53:40.640Z,994.19
2019-04-14T11:54:40.705Z,994.20
2019-04-14T11:55:40.706Z,994.16
2019-04-14T11:56:40.777Z,994.23
2019-04-14T11:57:40.654Z,994.19
2019-04-14T11:58:40.576Z,994.23
2019-04-14T11:59:40.602Z,994.20
2019-04-14T12:00:40.561Z,994.31
2019-04-14T12:01:40.545Z,994.19
2019-04-14T12:02:40.586Z,994.26
2019-04-14T12:03:40.527Z,994.26
2019-04-14T12:04:40.508Z,994.31
2019-04-14T12:05:40.510Z,994.29
2019-04-14T12:06:40.510Z,994.34
2019-04-14T12:07:40.497Z,994.34
2019-04-14T12:08:40.569Z,994.36
2019-04-14T12:09:40.459Z,994.35
2019-04-14T12:10:40.483Z,994.44
2019-04-14T12:11:40.451Z,994.45
2019-04-14T12:12:40.445Z,994.46
2019-04-14T12:13:40.414Z,994.51
2019-04-14T12:14:40.499Z,994.52
2019-04-14T12:15:40.449Z,994.53
2019-04-14T12:16:40.407Z,994.55
2019-04-14T12:17:40.375Z,994.54
2019-04-14T12:18:40.406Z,994.62
2019-04-14T12:19:40.358Z,994.58
2019-04-14T12:20:40.415Z,994.61
2019-04-14T12:21:40.340Z,994.68
2019-04-14T12:22:40.317Z,994.64
2019-04-14T12:23:40.325Z,994.75
2019-04-14T12:24:40.334Z,994.74
2019-04-14T12:25:40.299Z,994.78
2019-04-14T12:26:40.290Z,994.73
2019-04-14T12:27:40.335Z,994.77
2019-04-14T12:28:40.515Z,994.77
2019-04-14T12:29:41.205Z,994.76
2019-04-14T12:30:40.261Z,994.74
2019-04-14T12:31:40.232Z,994.77
2019-04-14T12:32:40.264Z,994.77
2019-04-14T12:33:40.219Z,994.76
2019-04-14T12:34:40.238Z,994.73
2019-04-14T12:35:40.214Z,994.79
2019-04-14T12:36:40.193Z,994.79
2019-04-14T12:37:40.157Z,994.75